createdAt,value
2023-02-11T00:01:09.146Z,73.94
2023-02-11T00:03:36.654Z,73.87
2023-02-11T00:06:06.686Z,73.73
2023-02-11T00:08:33.481Z,73.78
2023-02-11T00:11:00.310Z,73.99
2023-02-11T00:13:27.424Z,74.31
2023-02-11T00:15:55.452Z,74.18
2023-02-11T00:18:22.879Z,74.47
2023-02-11T00:20:49.774Z,74.31
2023-02-11T00:23:16.537Z,74.20
2023-02-11T00:25:45.433Z,74.35
2023-02-11T00:28:12.561Z,74.05
2023-02-11T00:30:40.951Z,74.28
2023-02-11T00:33:08.546Z,74.51
2023-02-11T00:35:38.354Z,74.35
2023-02-11T00:38:07.673Z,74.16
2023-02-11T00:40:34.520Z,74.08
2023-02-11T00:43:01.432Z,74.28
2023-02-11T00:45:28.831Z,74.51
2023-02-11T00:47:55.695Z,74.40
2023-02-11T00:50:23.004Z,74.41
2023-02-11T00:52:49.810Z,74.53
2023-02-11T00:55:17.176Z,74.63
2023-02-11T00:57:44.066Z,74.64
2023-02-11T01:00:13.830Z,74.41
2023-02-11T01:02:41.812Z,74.25
2023-02-11T01:05:10.025Z,74.31
2023-02-11T01:07:36.845Z,74.59
2023-02-11T01:10:04.472Z,74.72
2023-02-11T01:12:31.349Z,74.86
2023-02-11T01:14:58.337Z,75.07
2023-02-11T01:17:25.069Z,75.15
2023-02-11T01:19:51.842Z,75.21
2023-02-11T01:22:18.713Z,75.23
2023-02-11T01:24:47.315Z,75.04
2023-02-11T01:27:14.068Z,74.97
2023-02-11T01:29:40.863Z,74.79
2023-02-11T01:32:07.663Z,74.67
2023-02-11T01:34:34.495Z,74.76
2023-02-11T01:37:01.268Z,74.59
2023-02-11T01:39:29.295Z,74.56
2023-02-11T01:41:56.071Z,74.55
2023-02-11T01:44:29.110Z,74.38
2023-02-11T01:46:56.513Z,74.04
2023-02-11T01:49:32.224Z,73.68
2023-02-11T01:52:01.810Z,72.96
2023-02-11T01:55:01.584Z,72.28
2023-02-11T01:57:32.402Z,71.78
2023-02-11T02:00:20.430Z,71.43
2023-02-11T02:03:05.253Z,70.93
2023-02-11T02:05:43.793Z,71.16
2023-02-11T02:08:26.024Z,71.26
2023-02-11T02:10:56.591Z,71.72
2023-02-11T02:13:24.728Z,72.09
2023-02-11T02:15:59.305Z,72.08
2023-02-11T02:19:06.233Z,72.61
2023-02-11T02:22:15.233Z,72.74
2023-02-11T02:25:13.036Z,73.04
2023-02-11T02:28:05.870Z,73.35
2023-02-11T02:30:44.362Z,73.41
2023-02-11T02:33:53.320Z,73.37
2023-02-11T02:36:32.085Z,73.68
2023-02-11T02:39:13.898Z,74.17
2023-02-11T02:41:42.038Z,73.94
2023-02-11T02:44:09.421Z,74.25
2023-02-11T02:46:37.111Z,74.44
2023-02-11T02:49:11.092Z,74.60
2023-02-11T02:51:49.775Z,75.18
2023-02-11T02:54:34.456Z,75.29
2023-02-11T02:57:06.843Z,75.22
2023-02-11T03:00:19.534Z,75.79
2023-02-11T03:03:12.457Z,75.88
2023-02-11T03:06:00.465Z,75.21
2023-02-11T03:08:43.615Z,75.26
2023-02-11T03:11:12.444Z,74.70
2023-02-11T03:13:40.921Z,74.49
2023-02-11T03:16:28.502Z,74.34
2023-02-11T03:19:18.700Z,74.35
2023-02-11T03:21:47.158Z,74.59
2023-02-11T03:24:24.431Z,74.58
2023-02-11T03:26:54.915Z,74.90
2023-02-11T03:29:24.209Z,75.50
2023-02-11T03:32:17.153Z,75.25
2023-02-11T03:34:58.832Z,75.06
2023-02-11T03:37:32.693Z,74.85
2023-02-11T03:40:10.217Z,75.72
2023-02-11T03:42:59.432Z,75.36
2023-02-11T03:45:28.390Z,75.34
2023-02-11T03:48:04.039Z,75.57
2023-02-11T03:50:34.095Z,74.99
2023-02-11T03:53:02.741Z,74.89
2023-02-11T03:55:33.301Z,73.09
2023-02-11T03:58:00.154Z,72.15
2023-02-11T04:00:36.613Z,71.84
2023-02-11T04:03:04.554Z,72.06
2023-02-11T04:05:31.912Z,72.24
2023-02-11T04:07:58.751Z,72.10
2023-02-11T04:10:25.860Z,73.37
2023-02-11T04:12:52.651Z,74.11
2023-02-11T04:15:19.839Z,75.58
2023-02-11T04:17:46.767Z,76.78
2023-02-11T04:20:13.591Z,77.08
2023-02-11T04:22:40.505Z,77.18
2023-02-11T04:25:09.430Z,77.40
2023-02-11T04:27:36.837Z,76.89
2023-02-11T04:30:05.686Z,76.31
2023-02-11T04:32:32.486Z,75.76
2023-02-11T04:34:59.240Z,75.06
2023-02-11T04:37:26.015Z,74.27
2023-02-11T04:39:52.764Z,73.44
2023-02-11T04:42:19.551Z,72.92
2023-02-11T04:44:46.272Z,73.01
2023-02-11T04:47:15.616Z,72.67
2023-02-11T04:49:42.985Z,72.29
2023-02-11T04:52:09.812Z,72.28
2023-02-11T04:54:36.711Z,72.74
2023-02-11T04:57:03.610Z,73.49
2023-02-11T04:59:30.605Z,74.26
2023-02-11T05:01:57.424Z,74.48
2023-02-11T05:04:24.481Z,74.89
2023-02-11T05:06:51.292Z,75.02
2023-02-11T05:09:18.304Z,75.00
2023-02-11T05:11:45.112Z,74.85
2023-02-11T05:14:12.031Z,74.70
2023-02-11T05:16:38.905Z,74.35
2023-02-11T05:19:05.841Z,74.34
2023-02-11T05:21:32.665Z,74.78
2023-02-11T05:23:59.491Z,75.74
2023-02-11T05:26:26.905Z,75.95
2023-02-11T05:28:54.247Z,75.52
2023-02-11T05:31:21.557Z,75.33
2023-02-11T05:33:48.337Z,75.09
2023-02-11T05:36:16.914Z,75.07
2023-02-11T05:38:43.876Z,75.04
2023-02-11T05:41:11.911Z,75.93
2023-02-11T05:43:38.907Z,76.05
2023-02-11T05:46:06.810Z,75.44
2023-02-11T05:48:36.654Z,75.31
2023-02-11T05:51:04.340Z,75.00
2023-02-11T05:53:31.668Z,75.14
2023-02-11T05:55:58.513Z,75.37
2023-02-11T05:58:25.982Z,74.86
2023-02-11T06:00:52.858Z,74.48
2023-02-11T06:03:20.967Z,74.96
2023-02-11T06:05:47.994Z,75.12
2023-02-11T06:08:15.525Z,74.80
2023-02-11T06:10:45.573Z,74.82
2023-02-11T06:13:12.944Z,75.42
2023-02-11T06:15:40.297Z,75.79
2023-02-11T06:18:08.658Z,76.21
2023-02-11T06:20:35.760Z,75.82
2023-02-11T06:23:03.372Z,75.54
2023-02-11T06:25:30.130Z,74.92
2023-02-11T06:27:57.656Z,74.18
2023-02-11T06:30:25.199Z,74.73
2023-02-11T06:32:52.846Z,75.65
2023-02-11T06:35:21.418Z,75.77
2023-02-11T06:37:50.370Z,74.54
2023-02-11T06:40:17.246Z,73.01
2023-02-11T06:42:45.210Z,71.67
2023-02-11T06:45:13.830Z,70.01
2023-02-11T06:47:41.025Z,68.06
2023-02-11T06:50:11.262Z,67.00
2023-02-11T06:52:39.181Z,66.63
2023-02-11T06:55:06.508Z,65.25
2023-02-11T06:57:34.055Z,63.40
2023-02-11T07:00:01.642Z,63.06
2023-02-11T07:02:28.829Z,62.48
2023-02-11T07:04:55.607Z,62.85
2023-02-11T07:07:22.399Z,62.78
2023-02-11T07:09:49.191Z,62.02
2023-02-11T07:12:15.922Z,61.51
2023-02-11T07:14:42.783Z,60.88
2023-02-11T07:17:09.539Z,61.50
2023-02-11T07:19:36.280Z,60.96
2023-02-11T07:22:03.031Z,61.73
2023-02-11T07:24:29.906Z,61.81
2023-02-11T07:26:56.630Z,61.43
2023-02-11T07:29:23.338Z,61.60
2023-02-11T07:31:50.444Z,61.59
2023-02-11T07:34:17.427Z,61.51
2023-02-11T07:36:45.106Z,61.55
2023-02-11T07:39:12.080Z,61.05
2023-02-11T07:41:39.094Z,61.05
2023-02-11T07:44:06.451Z,61.09
2023-02-11T07:46:34.691Z,61.49
2023-02-11T07:49:01.695Z,61.43
2023-02-11T07:51:30.010Z,61.36
2023-02-11T07:53:59.131Z,61.00
2023-02-11T07:56:26.702Z,60.76
2023-02-11T07:58:54.470Z,60.12
2023-02-11T08:01:25.429Z,59.48
2023-02-11T08:03:53.021Z,60.22
2023-02-11T08:06:22.328Z,60.59
2023-02-11T08:08:49.532Z,60.81
2023-02-11T08:11:21.988Z,60.63
2023-02-11T08:13:49.092Z,60.91
2023-02-11T08:16:36.297Z,60.54
2023-02-11T08:19:14.668Z,60.85
2023-02-11T08:21:42.096Z,60.93
2023-02-11T08:24:09.534Z,60.67
2023-02-11T08:26:37.492Z,60.86
2023-02-11T08:29:09.163Z,60.70
2023-02-11T08:31:39.604Z,60.37
2023-02-11T08:34:06.997Z,60.37
2023-02-11T08:36:36.717Z,60.18
2023-02-11T08:39:22.482Z,59.90
2023-02-11T08:41:54.511Z,59.69
2023-02-11T08:44:21.918Z,60.00
2023-02-11T08:46:49.723Z,59.80
2023-02-11T08:49:17.252Z,59.22
2023-02-11T08:51:44.870Z,58.99
2023-02-11T08:54:12.165Z,59.25
2023-02-11T08:56:39.202Z,59.25
2023-02-11T08:59:07.107Z,58.95
2023-02-11T09:01:34.038Z,58.54
2023-02-11T09:04:01.232Z,57.96
2023-02-11T09:06:29.124Z,58.26
2023-02-11T09:08:58.142Z,57.82
2023-02-11T09:11:34.942Z,57.75
2023-02-11T09:14:03.051Z,57.72
2023-02-11T09:16:32.504Z,57.34
2023-02-11T09:19:01.163Z,58.16
2023-02-11T09:21:29.006Z,57.13
2023-02-11T09:23:56.641Z,57.42
2023-02-11T09:26:28.659Z,56.95
2023-02-11T09:28:56.125Z,57.03
2023-02-11T09:31:25.456Z,57.12
2023-02-11T09:33:55.427Z,57.19
2023-02-11T09:36:25.090Z,56.78
2023-02-11T09:38:52.779Z,57.22
2023-02-11T09:41:28.856Z,56.81
2023-02-11T09:43:58.694Z,55.55
2023-02-11T09:46:30.109Z,55.94
2023-02-11T09:48:57.218Z,55.53
2023-02-11T09:51:39.730Z,54.59
2023-02-11T09:54:19.542Z,54.17
2023-02-11T09:56:46.447Z,53.28
2023-02-11T09:59:16.240Z,53.31
2023-02-11T10:02:11.916Z,53.41
2023-02-11T10:04:57.263Z,52.09
2023-02-11T10:07:48.334Z,51.91
2023-02-11T10:10:56.626Z,52.06
2023-02-11T10:13:30.361Z,51.89
2023-02-11T10:16:08.937Z,52.36
2023-02-11T10:19:05.274Z,51.41
2023-02-11T10:21:37.910Z,50.94
2023-02-11T10:24:12.419Z,49.02
2023-02-11T10:26:40.788Z,49.43
2023-02-11T10:29:14.717Z,49.66
2023-02-11T10:31:45.300Z,50.64
2023-02-11T10:34:13.912Z,49.58
2023-02-11T10:36:43.380Z,50.14
2023-02-11T10:39:18.039Z,49.93
2023-02-11T10:41:58.244Z,49.73
2023-02-11T10:44:36.511Z,48.79
2023-02-11T10:47:10.281Z,46.81
2023-02-11T10:49:42.918Z,46.99
2023-02-11T10:52:24.419Z,47.51
2023-02-11T10:55:02.939Z,45.83
2023-02-11T10:57:37.455Z,45.26
2023-02-11T11:00:22.874Z,46.60
2023-02-11T11:02:56.652Z,45.61
2023-02-11T11:05:45.609Z,46.21
2023-02-11T11:08:13.354Z,46.19
2023-02-11T11:10:47.050Z,46.93
2023-02-11T11:13:34.758Z,45.73
2023-02-11T11:16:13.347Z,45.56
2023-02-11T11:18:42.133Z,46.11
2023-02-11T11:21:35.417Z,45.65
2023-02-11T11:24:20.948Z,46.68
2023-02-11T11:26:52.175Z,45.97
2023-02-11T11:29:31.222Z,46.06
2023-02-11T11:32:01.842Z,46.20
2023-02-11T11:34:32.432Z,46.60
2023-02-11T11:37:02.129Z,45.45
2023-02-11T11:39:34.984Z,45.40
2023-02-11T11:42:05.497Z,45.29
2023-02-11T11:44:34.694Z,44.90
2023-02-11T11:47:13.576Z,44.94
2023-02-11T11:49:40.390Z,43.87
2023-02-11T11:52:21.948Z,44.35
2023-02-11T11:54:58.358Z,44.25
2023-02-11T11:57:28.745Z,44.69
2023-02-11T11:59:55.904Z,44.37
2023-02-11T12:03:00.246Z,43.74
2023-02-11T12:05:45.286Z,43.17
2023-02-11T12:08:20.978Z,42.85
2023-02-11T12:11:10.952Z,43.16
2023-02-11T12:13:57.023Z,42.77
2023-02-11T12:16:42.787Z,41.78
2023-02-11T12:19:34.337Z,42.43
2023-02-11T12:22:12.784Z,41.62
2023-02-11T12:25:08.037Z,42.23
2023-02-11T12:27:34.745Z,42.46
2023-02-11T12:30:04.660Z,42.24
2023-02-11T12:32:37.036Z,41.16
2023-02-11T12:35:27.340Z,41.20
2023-02-11T12:37:54.136Z,40.98
2023-02-11T12:40:26.745Z,41.29
2023-02-11T12:43:17.186Z,41.41
2023-02-11T12:45:49.674Z,41.34
2023-02-11T12:48:22.659Z,41.20
2023-02-11T12:51:11.977Z,41.61
2023-02-11T12:54:16.114Z,41.55
2023-02-11T12:56:48.848Z,40.51
2023-02-11T12:59:26.271Z,41.16
2023-02-11T13:01:55.734Z,41.07
2023-02-11T13:04:30.944Z,41.55
2023-02-11T13:07:02.389Z,41.12
2023-02-11T13:09:37.218Z,40.20
2023-02-11T13:12:26.095Z,40.71
2023-02-11T13:14:56.551Z,41.09
2023-02-11T13:17:32.823Z,41.51
2023-02-11T13:20:05.893Z,40.41
2023-02-11T13:22:46.412Z,41.15
2023-02-11T13:25:50.224Z,40.36
2023-02-11T13:28:45.522Z,41.94
2023-02-11T13:31:14.817Z,40.49
2023-02-11T13:33:43.293Z,39.65
2023-02-11T13:36:10.001Z,41.23
2023-02-11T13:38:38.162Z,41.16
2023-02-11T13:41:20.786Z,40.96
2023-02-11T13:43:59.247Z,40.14
2023-02-11T13:46:29.134Z,40.53
2023-02-11T13:48:56.773Z,41.40
2023-02-11T13:51:39.095Z,40.78
2023-02-11T13:54:08.523Z,41.33
2023-02-11T13:56:40.830Z,40.78
2023-02-11T13:59:25.994Z,40.63
2023-02-11T14:02:35.917Z,40.82
2023-02-11T14:05:21.071Z,42.00
2023-02-11T14:08:36.325Z,40.17
2023-02-11T14:11:29.619Z,40.06
2023-02-11T14:14:14.908Z,39.81
2023-02-11T14:17:00.033Z,41.02
2023-02-11T14:19:35.879Z,40.49
2023-02-11T14:22:10.021Z,39.99
2023-02-11T14:24:36.703Z,40.48
2023-02-11T14:27:13.296Z,41.08
2023-02-11T14:30:09.405Z,40.84
2023-02-11T14:32:54.528Z,41.45
2023-02-11T14:35:39.623Z,40.55
2023-02-11T14:38:15.124Z,41.34
2023-02-11T14:41:03.272Z,41.52
2023-02-11T14:43:43.582Z,42.19
2023-02-11T14:46:10.556Z,42.45
2023-02-11T14:48:39.365Z,41.37
2023-02-11T14:51:11.354Z,41.98
2023-02-11T14:53:43.821Z,42.23
2023-02-11T14:56:28.049Z,43.01
2023-02-11T14:58:55.611Z,42.07
2023-02-11T15:01:35.470Z,41.71
2023-02-11T15:04:03.901Z,42.25
2023-02-11T15:06:38.029Z,42.52
2023-02-11T15:09:25.631Z,42.73
2023-02-11T15:11:53.305Z,43.33
2023-02-11T15:14:28.061Z,43.41
2023-02-11T15:16:58.571Z,43.03
2023-02-11T15:19:35.971Z,42.81
2023-02-11T15:22:07.155Z,43.14
2023-02-11T15:24:35.662Z,43.45
2023-02-11T15:27:03.831Z,43.87
2023-02-11T15:29:43.352Z,44.25
2023-02-11T15:32:10.240Z,44.84
2023-02-11T15:34:37.565Z,44.78
2023-02-11T15:37:04.751Z,45.06
2023-02-11T15:39:41.091Z,45.46
2023-02-11T15:42:27.492Z,47.07
2023-02-11T15:45:16.229Z,48.44
2023-02-11T15:47:49.715Z,48.99
2023-02-11T15:50:32.373Z,49.46
2023-02-11T15:53:20.985Z,50.34
2023-02-11T15:55:50.862Z,51.24
2023-02-11T15:58:18.277Z,53.64
2023-02-11T16:00:51.096Z,54.75
2023-02-11T16:03:28.756Z,53.86
2023-02-11T16:05:59.933Z,54.70
2023-02-11T16:08:29.983Z,54.93
2023-02-11T16:11:03.367Z,56.19
2023-02-11T16:13:34.528Z,55.59
2023-02-11T16:16:04.824Z,55.65
2023-02-11T16:18:40.467Z,56.85
2023-02-11T16:21:18.230Z,57.74
2023-02-11T16:23:54.465Z,57.59
2023-02-11T16:26:43.363Z,57.61
2023-02-11T16:29:37.506Z,57.73
2023-02-11T16:32:15.162Z,57.91
2023-02-11T16:34:42.064Z,58.39
2023-02-11T16:37:08.834Z,58.58
2023-02-11T16:39:35.952Z,58.56
2023-02-11T16:42:05.763Z,58.77
2023-02-11T16:44:34.905Z,58.93
2023-02-11T16:47:06.156Z,58.71
2023-02-11T16:49:37.123Z,60.13
2023-02-11T16:52:07.743Z,60.88
2023-02-11T16:54:34.572Z,60.47
2023-02-11T16:57:06.059Z,59.59
2023-02-11T16:59:34.879Z,59.70
2023-02-11T17:02:01.844Z,59.73
2023-02-11T17:04:31.531Z,61.54
2023-02-11T17:06:58.834Z,62.07
2023-02-11T17:09:30.602Z,62.50
2023-02-11T17:11:57.969Z,62.71
2023-02-11T17:14:24.777Z,63.02
2023-02-11T17:16:51.710Z,62.80
2023-02-11T17:19:23.588Z,63.31
2023-02-11T17:21:52.483Z,63.21
2023-02-11T17:24:20.660Z,63.44
2023-02-11T17:26:49.094Z,63.53
2023-02-11T17:29:25.621Z,63.73
2023-02-11T17:31:53.254Z,63.95
2023-02-11T17:34:21.636Z,63.72
2023-02-11T17:36:49.175Z,64.01
2023-02-11T17:39:16.535Z,63.89
2023-02-11T17:41:43.377Z,64.61
2023-02-11T17:44:12.410Z,65.53
2023-02-11T17:46:39.372Z,64.79
2023-02-11T17:49:06.297Z,64.41
2023-02-11T17:51:35.248Z,64.05
2023-02-11T17:54:04.990Z,63.82
2023-02-11T17:56:33.352Z,64.42
2023-02-11T17:59:02.470Z,65.14
2023-02-11T18:01:30.790Z,64.71
2023-02-11T18:03:57.687Z,64.77
2023-02-11T18:06:24.729Z,65.46
2023-02-11T18:08:51.828Z,66.11
2023-02-11T18:11:18.806Z,65.53
2023-02-11T18:13:45.708Z,65.24
2023-02-11T18:16:15.911Z,65.43
2023-02-11T18:18:43.692Z,65.64
2023-02-11T18:21:19.365Z,66.40
2023-02-11T18:23:46.995Z,67.48
2023-02-11T18:26:15.609Z,66.78
2023-02-11T18:28:45.632Z,66.96
2023-02-11T18:31:13.922Z,66.96
2023-02-11T18:33:42.702Z,66.87
2023-02-11T18:36:12.036Z,66.90
2023-02-11T18:38:41.874Z,68.00
2023-02-11T18:41:08.683Z,67.93
2023-02-11T18:43:36.371Z,68.82
2023-02-11T18:46:08.348Z,68.69
2023-02-11T18:48:35.276Z,69.04
2023-02-11T18:51:02.049Z,70.96
2023-02-11T18:53:28.838Z,70.94
2023-02-11T18:55:55.795Z,70.38
2023-02-11T18:58:22.890Z,69.82
2023-02-11T19:00:50.545Z,69.79
2023-02-11T19:03:17.618Z,69.87
2023-02-11T19:05:49.186Z,69.45
2023-02-11T19:08:17.192Z,69.31
2023-02-11T19:10:46.958Z,69.48
2023-02-11T19:13:14.158Z,70.01
2023-02-11T19:15:42.587Z,69.96
2023-02-11T19:18:10.110Z,71.67
2023-02-11T19:20:39.882Z,71.17
2023-02-11T19:23:06.735Z,71.29
2023-02-11T19:25:33.604Z,71.65
2023-02-11T19:28:00.527Z,71.29
2023-02-11T19:30:27.846Z,71.75
2023-02-11T19:32:57.166Z,71.68
2023-02-11T19:35:25.300Z,71.58
2023-02-11T19:37:52.124Z,71.41
2023-02-11T19:40:21.212Z,71.74
2023-02-11T19:42:48.246Z,71.93
2023-02-11T19:45:15.510Z,71.31
2023-02-11T19:47:42.251Z,71.89
2023-02-11T19:50:09.610Z,71.59
2023-02-11T19:52:40.785Z,72.19
2023-02-11T19:55:08.408Z,72.38
2023-02-11T19:57:37.054Z,73.44
2023-02-11T20:00:05.160Z,73.19
2023-02-11T20:02:39.565Z,73.13
2023-02-11T20:05:06.877Z,72.90
2023-02-11T20:07:33.634Z,73.11
2023-02-11T20:10:00.494Z,72.90
2023-02-11T20:12:27.374Z,72.66
2023-02-11T20:14:54.267Z,72.54
2023-02-11T20:17:21.047Z,72.80
2023-02-11T20:19:47.856Z,73.12
2023-02-11T20:22:14.700Z,72.86
2023-02-11T20:24:41.507Z,73.66
2023-02-11T20:27:10.539Z,73.11
2023-02-11T20:29:38.260Z,72.71
2023-02-11T20:32:06.453Z,73.28
2023-02-11T20:34:33.870Z,73.36
2023-02-11T20:37:00.658Z,73.06
2023-02-11T20:39:27.461Z,73.33
2023-02-11T20:41:54.880Z,73.20
2023-02-11T20:44:22.536Z,72.77
2023-02-11T20:46:51.368Z,72.25
2023-02-11T20:49:21.479Z,71.68
2023-02-11T20:51:49.155Z,71.22
2023-02-11T20:54:18.429Z,70.72
2023-02-11T20:56:48.078Z,70.53
2023-02-11T20:59:16.654Z,70.20
2023-02-11T21:01:48.115Z,70.28
2023-02-11T21:04:18.088Z,70.31
2023-02-11T21:06:48.169Z,70.04
2023-02-11T21:09:19.816Z,69.95
2023-02-11T21:11:47.668Z,70.84
2023-02-11T21:14:15.154Z,70.90
2023-02-11T21:16:42.302Z,71.48
2023-02-11T21:19:09.186Z,72.49
2023-02-11T21:21:38.533Z,72.54
2023-02-11T21:24:07.027Z,72.24
2023-02-11T21:26:35.491Z,72.30
2023-02-11T21:29:04.754Z,72.21
2023-02-11T21:31:34.327Z,71.77
2023-02-11T21:34:02.124Z,71.32
2023-02-11T21:36:29.788Z,70.93
2023-02-11T21:38:57.034Z,70.74
2023-02-11T21:41:24.941Z,70.50
2023-02-11T21:43:52.475Z,70.19
2023-02-11T21:46:20.468Z,69.91
2023-02-11T21:48:47.665Z,69.58
2023-02-11T21:51:17.276Z,69.46
2023-02-11T21:53:44.414Z,69.34
2023-02-11T21:56:13.980Z,69.11
2023-02-11T21:58:40.998Z,68.63
2023-02-11T22:01:15.842Z,67.80
2023-02-11T22:03:43.050Z,67.45
2023-02-11T22:06:12.546Z,67.29
2023-02-11T22:08:40.146Z,67.05
2023-02-11T22:11:09.532Z,66.91
2023-02-11T22:13:37.107Z,66.89
2023-02-11T22:16:10.595Z,67.00
2023-02-11T22:18:38.077Z,67.14
2023-02-11T22:21:10.870Z,67.52
2023-02-11T22:23:39.225Z,67.55
2023-02-11T22:26:23.926Z,66.94
2023-02-11T22:28:51.571Z,67.14
2023-02-11T22:31:25.185Z,66.78
2023-02-11T22:33:52.365Z,66.62
2023-02-11T22:36:22.466Z,66.24
2023-02-11T22:38:49.651Z,66.36
2023-02-11T22:41:17.341Z,66.50
2023-02-11T22:43:45.097Z,66.46
2023-02-11T22:46:14.433Z,66.04
2023-02-11T22:48:41.344Z,65.85
2023-02-11T22:51:14.214Z,65.59
2023-02-11T22:53:41.136Z,65.90
2023-02-11T22:56:15.018Z,66.21
2023-02-11T22:58:42.690Z,65.86
2023-02-11T23:01:10.411Z,65.30
2023-02-11T23:03:37.370Z,65.03
2023-02-11T23:06:05.065Z,65.00
2023-02-11T23:08:32.669Z,65.10
2023-02-11T23:11:11.673Z,65.34
2023-02-11T23:13:40.442Z,65.24
2023-02-11T23:16:10.213Z,65.19
2023-02-11T23:18:38.519Z,65.22
2023-02-11T23:21:11.305Z,65.30
2023-02-11T23:23:39.570Z,65.35
2023-02-11T23:26:11.113Z,65.69
2023-02-11T23:28:38.735Z,65.82
2023-02-11T23:31:25.453Z,66.01
2023-02-11T23:33:52.727Z,66.25
2023-02-11T23:36:21.455Z,65.42
2023-02-11T23:38:48.999Z,65.47
2023-02-11T23:41:16.422Z,65.18
2023-02-11T23:43:43.521Z,64.85
2023-02-11T23:46:10.968Z,64.85
2023-02-11T23:48:38.031Z,64.99
2023-02-11T23:51:05.025Z,65.01
2023-02-11T23:53:31.744Z,64.93
2023-02-11T23:55:58.611Z,64.81
2023-02-11T23:58:25.380Z,64.61
